Time;durP1;ratioP1;P1;durP2;ratioP2;P2;SDS_P1;SDS_P2;PMS_P1;PMS_P2;Temp;Humidity;BMP_temperature;BMP_pressure;BME280_temperature;BME280_humidity;BME280_pressure;Samples;Min_cycle;Max_cycle;Signal;HPM_P1;HPM_P2
2021/01/01 00:02:18;;;;;;;100.80;44.03;;;;;;;0.81;100.00;100616.63;4955286;28;20031;-79
2021/01/01 00:04:43;;;;;;;115.80;48.00;;;;;;;0.83;100.00;100617.34;4955597;28;20038;-80
2021/01/01 00:07:09;;;;;;;106.78;48.38;;;;;;;0.84;100.00;100619.03;4954943;28;20030;-80
2021/01/01 00:09:34;;;;;;;115.15;45.67;;;;;;;0.88;100.00;100618.72;4955656;28;20069;-80
2021/01/01 00:12:00;;;;;;;100.50;45.28;;;;;;;0.90;100.00;100618.59;4952272;28;20039;-80
2021/01/01 00:14:25;;;;;;;101.30;44.22;;;;;;;0.92;100.00;100614.06;4950788;29;20189;-80
2021/01/01 00:16:51;;;;;;;99.88;42.58;;;;;;;0.94;100.00;100623.56;4954005;28;20027;-80
2021/01/01 00:19:16;;;;;;;97.00;41.58;;;;;;;0.92;100.00;100627.28;4954418;28;20035;-80
2021/01/01 00:21:42;;;;;;;91.95;35.95;;;;;;;0.94;100.00;100630.63;4969598;28;20249;-80
2021/01/01 00:24:07;;;;;;;96.47;40.72;;;;;;;0.96;100.00;100626.09;4955400;28;20035;-80
2021/01/01 00:26:33;;;;;;;98.05;41.83;;;;;;;0.92;100.00;100624.63;4954096;28;20050;-80
2021/01/01 00:28:59;;;;;;;95.55;40.80;;;;;;;0.89;100.00;100611.63;4954286;28;20031;-80
2021/01/01 00:31:26;;;;;;;80.97;37.70;;;;;;;0.92;100.00;100625.47;4954207;28;20031;-80
2021/01/01 00:33:52;;;;;;;103.05;43.72;;;;;;;0.93;100.00;100628.94;4954430;28;20122;-80
2021/01/01 00:36:20;;;;;;;101.97;42.45;;;;;;;0.93;100.00;100621.88;4953473;28;20043;-79
2021/01/01 00:38:50;;;;;;;97.47;40.15;;;;;;;0.95;100.00;100629.69;4954308;28;20166;-80
2021/01/01 00:41:25;;;;;;;101.78;43.28;;;;;;;0.95;100.00;100632.31;4953719;28;20102;-80
2021/01/01 00:43:52;;;;;;;97.80;42.70;;;;;;;0.96;100.00;100626.09;4953519;28;20039;-80
2021/01/01 00:46:18;;;;;;;92.38;41.70;;;;;;;0.97;100.00;100633.06;4951896;28;20028;-80
2021/01/01 00:48:43;;;;;;;96.10;40.10;;;;;;;0.99;100.00;100631.16;4968735;28;20508;-79
2021/01/01 00:51:09;;;;;;;91.72;38.10;;;;;;;0.97;100.00;100625.97;4953367;28;20038;-79
2021/01/01 00:53:34;;;;;;;89.47;41.28;;;;;;;0.98;100.00;100632.09;4953575;28;20046;-80
2021/01/01 00:56:00;;;;;;;93.45;40.75;;;;;;;0.98;100.00;100634.75;4953026;28;20039;-79
2021/01/01 00:58:25;;;;;;;99.78;42.10;;;;;;;0.98;100.00;100627.66;4952561;28;20042;-79
2021/01/01 01:00:50;;;;;;;92.22;40.53;;;;;;;0.98;100.00;100634.75;4953039;28;20027;-80
2021/01/01 01:03:16;;;;;;;94.40;41.60;;;;;;;0.97;100.00;100627.78;4953561;28;20071;-80
2021/01/01 01:05:41;;;;;;;93.47;41.38;;;;;;;0.98;100.00;100640.03;4952586;28;20054;-80
2021/01/01 01:08:07;;;;;;;96.10;40.42;;;;;;;0.98;100.00;100632.09;4967404;28;20035;-79
2021/01/01 01:10:32;;;;;;;101.32;41.40;;;;;;;1.01;100.00;100635.38;4952376;28;20035;-80
2021/01/01 01:12:58;;;;;;;94.55;41.22;;;;;;;1.03;100.00;100637.91;4953779;28;20039;-80
2021/01/01 01:15:23;;;;;;;104.20;41.17;;;;;;;1.03;100.00;100641.38;4956925;28;20059;-80
2021/01/01 01:17:49;;;;;;;99.50;42.60;;;;;;;1.04;100.00;100643.06;4956813;28;20059;-80
2021/01/01 01:20:14;;;;;;;102.38;42.90;;;;;;;1.04;100.00;100639.59;4955819;28;20031;-80
2021/01/01 01:22:40;;;;;;;91.78;40.13;;;;;;;1.07;100.00;100643.81;4957344;28;20039;-80
2021/01/01 01:25:06;;;;;;;94.05;40.28;;;;;;;1.08;100.00;100650.78;4957231;28;20039;-80
2021/01/01 01:27:31;;;;;;;102.22;43.20;;;;;;;1.07;100.00;100654.38;4956751;28;20031;-80
2021/01/01 01:29:57;;;;;;;103.60;43.80;;;;;;;1.04;100.00;100652.78;4957667;28;20066;-80
2021/01/01 01:32:22;;;;;;;97.43;41.95;;;;;;;1.06;100.00;100656.19;4956724;29;20075;-80
2021/01/01 01:34:48;;;;;;;95.68;41.40;;;;;;;1.08;100.00;100662.19;4957420;28;20051;-80
2021/01/01 01:37:13;;;;;;;94.07;40.30;;;;;;;1.10;100.00;100659.44;4952697;28;20032;-80
2021/01/01 01:39:39;;;;;;;81.82;37.78;;;;;;;1.11;100.00;100666.44;4955457;28;20497;-80
2021/01/01 01:42:04;;;;;;;107.82;42.10;;;;;;;1.12;100.00;100668.97;4957206;28;20050;-80
2021/01/01 01:44:30;;;;;;;101.38;41.90;;;;;;;1.13;100.00;100662.72;4956520;28;20528;-80
2021/01/01 01:46:55;;;;;;;97.50;41.10;;;;;;;1.12;100.00;100666.31;4955917;28;20031;-80
2021/01/01 01:49:22;;;;;;;96.93;41.53;;;;;;;1.13;100.00;100669.78;4956563;28;20484;-80
2021/01/01 01:51:48;;;;;;;107.20;44.35;;;;;;;1.12;100.00;100663.66;4957135;28;20028;-80
2021/01/01 01:54:17;;;;;;;100.93;42.83;;;;;;;1.14;100.00;100668.84;4957430;28;20116;-79
2021/01/01 01:56:44;;;;;;;105.10;44.95;;;;;;;1.17;100.00;100672.09;4956480;28;20032;-80
2021/01/01 01:59:13;;;;;;;101.28;43.58;;;;;;;1.16;100.00;100672.22;4960469;28;20042;-80
2021/01/01 02:01:38;;;;;;;101.72;41.95;;;;;;;1.15;100.00;100678.44;4960960;28;20028;-80
2021/01/01 02:04:04;;;;;;;106.80;43.55;;;;;;;1.14;100.00;100667.03;4961805;28;20402;-80
2021/01/01 02:06:29;;;;;;;102.60;43.35;;;;;;;1.14;100.00;100672.31;4960807;28;20039;-80
2021/01/01 02:08:55;;;;;;;101.75;41.63;;;;;;;1.12;100.00;100673.41;4975656;28;20038;-80
2021/01/01 02:11:21;;;;;;;99.53;41.67;;;;;;;1.15;100.00;100670.50;4961150;28;20094;-80
2021/01/01 02:13:52;;;;;;;93.72;41.33;;;;;;;1.13;100.00;100675.91;4959393;28;20042;-80
2021/01/01 02:16:21;;;;;;;89.95;40.90;;;;;;;1.14;100.00;100671.47;4959661;28;20114;-80
2021/01/01 02:18:47;;;;;;;98.78;40.58;;;;;;;1.10;100.00;100675.28;4961092;28;20035;-80
2021/01/01 02:21:16;;;;;;;100.13;42.30;;;;;;;1.09;100.00;100677.09;4976228;28;20054;-80
2021/01/01 02:23:42;;;;;;;94.25;40.03;;;;;;;1.15;100.00;100687.22;4960806;28;20109;-80
2021/01/01 02:26:08;;;;;;;104.22;40.55;;;;;;;1.12;100.00;100686.63;4975865;28;20054;-80
2021/01/01 02:28:34;;;;;;;101.45;42.45;;;;;;;1.12;100.00;100690.09;4960924;28;20031;-80
2021/01/01 02:30:59;;;;;;;103.60;41.80;;;;;;;1.12;100.00;100692.72;4961614;28;20548;-80
2021/01/01 02:33:25;;;;;;;100.68;41.17;;;;;;;1.14;100.00;100688.16;4961280;28;20038;-80
2021/01/01 02:35:51;;;;;;;103.13;42.20;;;;;;;1.13;100.00;100694.41;4959769;28;20058;-79
2021/01/01 02:38:17;;;;;;;95.10;39.95;;;;;;;1.11;100.00;100688.41;4956536;28;20063;-80
2021/01/01 02:40:43;;;;;;;101.38;43.22;;;;;;;1.13;100.00;100701.50;4957039;28;20090;-80
2021/01/01 02:43:09;;;;;;;107.50;42.28;;;;;;;1.14;100.00;100703.19;4955805;28;20035;-79
2021/01/01 02:45:34;;;;;;;98.43;41.70;;;;;;;1.15;100.00;100700.41;4957152;28;20034;-80
2021/01/01 02:48:12;;;;;;;110.40;43.95;;;;;;;1.17;100.00;100702.97;4956384;28;20034;-80
2021/01/01 02:50:38;;;;;;;96.47;41.83;;;;;;;1.16;100.00;100693.38;4956956;28;20035;-80
2021/01/01 02:53:04;;;;;;;103.82;44.90;;;;;;;1.21;100.00;100699.16;4956340;28;20485;-79
2021/01/01 02:55:31;;;;;;;100.18;41.70;;;;;;;1.20;100.00;100700.09;4957091;28;20036;-80
2021/01/01 02:57:59;;;;;;;107.95;43.58;;;;;;;1.20;100.00;100702.75;4956425;28;20037;-79
2021/01/01 03:00:24;;;;;;;100.60;43.05;;;;;;;1.17;100.00;100695.88;4956757;28;20493;-80
2021/01/01 03:02:50;;;;;;;109.85;42.85;;;;;;;1.15;100.00;100699.59;4956321;28;20038;-80
2021/01/01 03:05:16;;;;;;;112.53;44.40;;;;;;;1.16;100.00;100698.66;4956056;28;20493;-80
2021/01/01 03:07:42;;;;;;;108.68;42.63;;;;;;;1.18;100.00;100707.31;4955299;28;20032;-80
2021/01/01 03:10:08;;;;;;;110.07;44.50;;;;;;;1.17;100.00;100703.81;4955793;28;20043;-79
2021/01/01 03:12:34;;;;;;;118.93;44.50;;;;;;;1.19;100.00;100701.91;4956311;28;20027;-80
2021/01/01 03:14:59;;;;;;;111.90;43.47;;;;;;;1.22;100.00;100701.69;4949392;28;20040;-80
2021/01/01 03:17:25;;;;;;;112.40;42.78;;;;;;;1.24;100.00;100702.41;4956064;28;20106;-80
2021/01/01 03:19:50;;;;;;;111.07;45.08;;;;;;;1.23;100.00;100710.47;4956365;28;20038;-79
2021/01/01 03:22:16;;;;;;;103.60;44.22;;;;;;;1.24;100.00;100705.06;4955790;28;20035;-80
2021/01/01 03:24:41;;;;;;;106.30;42.53;;;;;;;1.23;100.00;100705.19;4955793;28;20023;-80
2021/01/01 03:27:07;;;;;;;111.32;44.30;;;;;;;1.26;100.00;100705.81;4954918;28;20050;-80
2021/01/01 03:29:32;;;;;;;110.28;45.30;;;;;;;1.25;100.00;100714.66;4955186;28;20413;-80
2021/01/01 03:31:58;;;;;;;110.03;41.55;;;;;;;1.29;100.00;100715.31;4955338;28;20035;-80
2021/01/01 03:34:23;;;;;;;108.55;43.78;;;;;;;1.29;100.00;100710.00;4954357;28;20063;-80
2021/01/01 03:36:50;;;;;;;115.68;43.80;;;;;;;1.28;100.00;100709.19;4954889;28;20078;-80
2021/01/01 03:39:16;;;;;;;96.10;39.88;;;;;;;1.27;100.00;100706.66;4955230;28;20403;-80
2021/01/01 03:41:42;;;;;;;109.10;43.92;;;;;;;1.24;100.00;100699.78;4955293;28;20126;-80
2021/01/01 03:44:07;;;;;;;111.57;43.17;;;;;;;1.20;100.00;100700.94;4954188;28;20516;-80
2021/01/01 03:46:32;;;;;;;111.60;42.80;;;;;;;1.18;100.00;100707.31;4955141;28;20027;-80
2021/01/01 03:48:58;;;;;;;103.35;41.13;;;;;;;1.11;100.00;100698.13;4955472;28;20027;-80
2021/01/01 03:51:23;;;;;;;107.75;39.83;;;;;;;1.01;100.00;100701.44;4955006;28;20050;-79
2021/01/01 03:53:49;;;;;;;100.70;39.65;;;;;;;0.97;100.00;100712.31;4955878;28;20035;-80
2021/01/01 03:56:14;;;;;;;107.38;41.45;;;;;;;0.94;100.00;100709.88;4954653;28;20051;-80
2021/01/01 03:58:40;;;;;;;109.28;41.38;;;;;;;0.90;100.00;100706.59;4955336;28;20031;-80
2021/01/01 04:01:05;;;;;;;100.53;40.83;;;;;;;0.88;100.00;100707.69;4955137;28;20031;-79
2021/01/01 04:03:31;;;;;;;93.28;36.10;;;;;;;0.87;100.00;100719.19;4955258;28;20054;-80
2021/01/01 04:05:58;;;;;;;96.45;36.60;;;;;;;0.87;100.00;100714.75;4954229;28;20389;-80
2021/01/01 04:08:23;;;;;;;102.38;37.83;;;;;;;0.86;100.00;100717.50;4954416;28;20039;-79
2021/01/01 04:10:49;;;;;;;91.28;35.65;;;;;;;0.86;100.00;100710.44;4954389;28;20086;-79
2021/01/01 04:13:14;;;;;;;90.28;35.58;;;;;;;0.85;100.00;100714.00;4954416;28;20035;-79
2021/01/01 04:15:40;;;;;;;92.20;35.75;;;;;;;0.85;100.00;100708.72;4946794;28;20038;-80
2021/01/01 04:18:05;;;;;;;87.53;34.60;;;;;;;0.86;100.00;100712.22;4968909;28;20046;-80
2021/01/01 04:20:31;;;;;;;82.50;35.13;;;;;;;0.83;100.00;100710.63;4954036;28;20063;-80
2021/01/01 04:22:57;;;;;;;94.10;36.17;;;;;;;0.82;100.00;100711.59;4954204;28;20039;-79
2021/01/01 04:25:22;;;;;;;87.47;33.70;;;;;;;0.81;100.00;100717.00;4954214;28;20035;-80
2021/01/01 04:27:48;;;;;;;94.50;36.13;;;;;;;0.80;100.00;100717.91;4953867;28;20425;-79
2021/01/01 04:30:14;;;;;;;80.63;35.05;;;;;;;0.80;100.00;100715.28;4969874;28;20027;-79
2021/01/01 04:32:40;;;;;;;91.50;34.88;;;;;;;0.82;100.00;100718.69;4953600;28;20046;-79
2021/01/01 04:35:06;;;;;;;87.10;34.90;;;;;;;0.83;100.00;100717.72;4954403;28;20035;-80
2021/01/01 04:37:31;;;;;;;84.55;35.28;;;;;;;0.81;100.00;100715.19;4954806;28;20033;-79
2021/01/01 04:39:57;;;;;;;86.43;33.10;;;;;;;0.80;100.00;100720.56;4947784;28;20122;-79
2021/01/01 04:42:24;;;;;;;78.60;33.72;;;;;;;0.78;100.00;100715.38;4953999;28;20489;-79
2021/01/01 04:44:50;;;;;;;88.03;34.75;;;;;;;0.77;100.00;100722.47;4954431;28;20035;-79
2021/01/01 04:47:16;;;;;;;77.43;33.70;;;;;;;0.77;100.00;100722.47;4954301;28;20027;-79
2021/01/01 04:49:42;;;;;;;85.65;34.08;;;;;;;0.76;100.00;100728.72;4954978;28;20027;-79
2021/01/01 04:52:09;;;;;;;71.57;31.90;;;;;;;0.74;100.00;100727.13;4969006;28;20504;-79
2021/01/01 04:54:35;;;;;;;85.78;32.75;;;;;;;0.70;100.00;100730.91;4953661;28;20038;-79
2021/01/01 04:57:01;;;;;;;89.45;32.95;;;;;;;0.65;100.00;100728.63;4953692;28;20042;-79
2021/01/01 04:59:27;;;;;;;73.82;32.10;;;;;;;0.65;100.00;100727.75;4954065;28;20040;-79
2021/01/01 05:01:52;;;;;;;78.25;32.58;;;;;;;0.60;100.00;100724.56;4947334;28;20063;-79
2021/01/01 05:04:18;;;;;;;76.53;32.28;;;;;;;0.59;100.00;100730.81;4953374;28;20036;-79
2021/01/01 05:06:44;;;;;;;80.78;32.55;;;;;;;0.54;100.00;100730.28;4953128;28;20051;-79
2021/01/01 05:09:12;;;;;;;82.25;33.50;;;;;;;0.49;100.00;100733.22;4953590;28;20031;-79
2021/01/01 05:11:38;;;;;;;74.97;32.25;;;;;;;0.45;100.00;100737.03;4953392;28;20035;-79
2021/01/01 05:14:06;;;;;;;80.60;33.17;;;;;;;0.41;100.00;100730.28;4952143;28;20484;-79
2021/01/01 05:16:32;;;;;;;74.72;32.78;;;;;;;0.37;100.00;100737.56;4946061;28;20038;-79
2021/01/01 05:18:58;;;;;;;77.90;34.83;;;;;;;0.33;100.00;100743.97;4952736;28;20031;-80
2021/01/01 05:21:26;;;;;;;75.05;30.90;;;;;;;0.29;100.00;100741.66;4952935;28;20055;-79
2021/01/01 05:23:55;;;;;;;73.78;30.75;;;;;;;0.23;100.00;100730.56;4967620;28;20039;-79
2021/01/01 05:26:25;;;;;;;71.03;31.50;;;;;;;0.21;100.00;100742.19;4952702;28;20035;-79
2021/01/01 05:28:51;;;;;;;78.38;31.77;;;;;;;0.19;100.00;100736.16;4953164;28;20485;-80
2021/01/01 05:31:20;;;;;;;77.93;33.83;;;;;;;0.18;100.00;100740.56;4957614;28;20082;-80
2021/01/01 05:33:54;;;;;;;80.90;33.55;;;;;;;0.17;100.00;100741.53;4960097;28;20039;-80
2021/01/01 05:36:33;;;;;;;75.80;33.80;;;;;;;0.20;100.00;100743.97;4959882;28;20035;-80
2021/01/01 05:39:00;;;;;;;114.32;52.78;;;;;;;0.24;100.00;100741.97;4960778;28;20041;-80
2021/01/01 05:41:31;;;;;;;94.97;43.55;;;;;;;0.23;100.00;100743.75;4958067;28;20035;-79
2021/01/01 05:44:09;;;;;;;97.57;42.28;;;;;;;0.25;100.00;100751.56;4960288;28;20042;-80
2021/01/01 05:46:35;;;;;;;123.53;54.33;;;;;;;0.30;100.00;100749.44;4959717;28;20019;-80
2021/01/01 05:49:01;;;;;;;94.78;45.03;;;;;;;0.29;100.00;100753.06;4962504;28;20451;-79
2021/01/01 05:51:27;;;;;;;95.20;46.67;;;;;;;0.28;100.00;100751.38;4962579;28;20035;-79
2021/01/01 05:54:10;;;;;;;75.63;32.95;;;;;;;0.25;100.00;100752.44;4962798;28;20035;-80
2021/01/01 05:56:39;;;;;;;71.78;33.33;;;;;;;0.22;100.00;100759.69;4962020;28;20496;-79
2021/01/01 05:59:09;;;;;;;76.82;33.78;;;;;;;0.19;100.00;100758.09;4976944;28;20121;-80
2021/01/01 06:01:36;;;;;;;91.13;35.30;;;;;;;0.17;100.00;100759.16;4962113;28;20485;-79
2021/01/01 06:04:03;;;;;;;68.80;33.30;;;;;;;0.14;100.00;100768.09;4961952;28;20086;-80
2021/01/01 06:06:32;;;;;;;70.20;32.45;;;;;;;0.12;100.00;100770.00;4961986;28;20027;-80
2021/01/01 06:09:03;;;;;;;75.00;34.72;;;;;;;0.08;100.00;100771.16;4961008;28;20039;-80
2021/01/01 06:11:35;;;;;;;77.85;35.25;;;;;;;0.09;100.00;100772.00;4961313;28;20501;-80
2021/01/01 06:14:04;;;;;;;84.80;36.00;;;;;;;0.06;100.00;100775.69;4961323;28;20544;-80
2021/01/01 06:16:35;;;;;;;75.55;33.50;;;;;;;0.08;100.00;100779.06;4951349;28;20035;-80
2021/01/01 06:19:10;;;;;;;79.78;35.28;;;;;;;0.10;100.00;100781.59;4958415;28;20035;-80
2021/01/01 06:21:41;;;;;;;88.97;35.65;;;;;;;0.08;100.00;100779.06;4976464;28;20055;-80
2021/01/01 06:24:17;;;;;;;76.82;34.78;;;;;;;0.09;100.00;100785.19;4961351;28;20035;-80
2021/01/01 06:26:43;;;;;;;;;;;;;;;0.10;100.00;100784.22;4960965;28;20035;-80
2021/01/01 06:29:10;;;;;;;67.10;31.27;;;;;;;0.09;100.00;100780.75;4962002;28;19918;-79
2021/01/01 06:31:37;;;;;;;78.47;32.55;;;;;;;0.08;100.00;100783.50;4975968;28;20037;-80
2021/01/01 06:34:21;;;;;;;67.82;32.45;;;;;;;0.04;100.00;100793.41;4961162;28;20059;-80
2021/01/01 06:36:48;;;;;;;72.60;32.42;;;;;;;0.03;100.00;100790.88;4975790;28;20065;-80
2021/01/01 06:39:35;;;;;;;69.63;32.67;;;;;;;0.02;100.00;100794.47;4961239;28;20039;-80
2021/01/01 06:42:01;;;;;;;70.20;30.63;;;;;;;-0.03;100.00;100790.31;4958882;28;20037;-80
2021/01/01 06:44:36;;;;;;;68.82;30.50;;;;;;;-0.06;100.00;100789.66;4959345;28;20124;-79
2021/01/01 06:47:06;;;;;;;72.18;31.42;;;;;;;-0.10;100.00;100794.31;4959661;28;20030;-80
2021/01/01 06:49:35;;;;;;;71.82;32.97;;;;;;;-0.03;100.00;100806.16;4961084;28;20031;-80
2021/01/01 06:52:06;;;;;;;78.80;37.28;;;;;;;-0.01;100.00;100806.03;4974959;28;20039;-80
2021/01/01 06:54:32;;;;;;;73.80;36.13;;;;;;;-0.02;100.00;100807.84;4960497;28;20042;-80
2021/01/01 06:57:03;;;;;;;80.18;35.90;;;;;;;-0.04;100.00;100814.16;4959133;28;20031;-80
2021/01/01 06:59:32;;;;;;;75.13;35.63;;;;;;;-0.05;100.00;100812.44;4955668;28;20035;-80
2021/01/01 07:02:17;;;;;;;74.47;35.45;;;;;;;-0.06;100.00;100810.75;4960997;28;20054;-80
2021/01/01 07:04:48;;;;;;;77.53;33.70;;;;;;;-0.06;100.00;100814.25;4960558;28;20450;-80
2021/01/01 07:07:45;;;;;;;73.57;32.50;;;;;;;-0.07;100.00;100817.84;4975418;28;20027;-80
2021/01/01 07:10:36;;;;;;;73.00;34.28;;;;;;;-0.09;100.00;100824.16;4955604;28;20059;-80
2021/01/01 07:13:15;;;;;;;70.47;33.28;;;;;;;-0.09;100.00;100824.16;4959730;28;20095;-80
2021/01/01 07:15:40;;;;;;;73.95;33.17;;;;;;;-0.10;100.00;100828.59;4954141;28;20095;-80
2021/01/01 07:18:06;;;;;;;66.70;32.50;;;;;;;-0.11;100.00;100829.53;4958681;28;20480;-79
2021/01/01 07:20:38;;;;;;;75.55;35.22;;;;;;;-0.11;100.00;100833.94;4959893;28;20070;-79
2021/01/01 07:23:04;;;;;;;87.53;34.60;;;;;;;-0.11;100.00;100829.53;4959636;28;20038;-80
2021/01/01 07:25:37;;;;;;;72.10;34.22;;;;;;;-0.10;100.00;100835.63;4959830;28;20035;-80
2021/01/01 07:28:05;;;;;;;79.93;35.47;;;;;;;-0.10;100.00;100836.50;4947447;29;20031;-80
2021/01/01 07:30:32;;;;;;;74.25;35.33;;;;;;;-0.10;100.00;100839.16;4959567;28;20122;-80
2021/01/01 07:32:58;;;;;;;73.63;32.20;;;;;;;-0.10;100.00;100843.56;4959132;28;20190;-80
2021/01/01 07:35:25;;;;;;;64.55;34.38;;;;;;;-0.12;100.00;100838.38;4973632;28;20098;-80
2021/01/01 07:37:52;;;;;;;76.22;35.80;;;;;;;-0.14;100.00;100840.28;4959385;28;20042;-80
2021/01/01 07:40:18;;;;;;;71.72;33.85;;;;;;;-0.14;100.00;100844.72;4947644;28;20032;-80
2021/01/01 07:42:48;;;;;;;73.07;37.83;;;;;;;-0.14;100.00;100850.00;4956922;28;20045;-79
2021/01/01 07:45:14;;;;;;;67.20;34.08;;;;;;;-0.17;100.00;100851.00;4955418;28;20039;-78
2021/01/01 07:47:42;;;;;;;69.78;35.58;;;;;;;-0.17;100.00;100850.16;4956359;29;20038;-78
2021/01/01 07:50:16;;;;;;;73.53;35.67;;;;;;;-0.17;100.00;100848.38;4954068;28;20049;-78
2021/01/01 07:52:42;;;;;;;71.95;34.13;;;;;;;-0.17;100.00;100851.00;4954347;28;20094;-77
2021/01/01 07:55:08;;;;;;;64.90;32.47;;;;;;;-0.17;100.00;100847.53;4953145;28;20035;-78
2021/01/01 07:57:36;;;;;;;67.22;33.85;;;;;;;-0.18;100.00;100851.97;4954206;28;20074;-76
2021/01/01 08:00:04;;;;;;;65.22;32.47;;;;;;;-0.18;100.00;100851.97;4954156;28;20042;-77
2021/01/01 08:02:30;;;;;;;66.05;32.80;;;;;;;-0.18;100.00;100851.97;4954494;28;20031;-78
2021/01/01 08:04:56;;;;;;;66.43;32.38;;;;;;;-0.16;100.00;100850.06;4953794;28;20450;-78
2021/01/01 08:07:22;;;;;;;62.85;32.33;;;;;;;-0.14;100.00;100847.34;4953900;28;20034;-77
2021/01/01 08:09:48;;;;;;;68.18;34.78;;;;;;;-0.10;100.00;100856.72;4954014;28;20050;-77
2021/01/01 08:12:13;;;;;;;67.07;33.30;;;;;;;-0.04;100.00;100862.50;4953746;29;20146;-78
2021/01/01 08:14:47;;;;;;;69.80;32.58;;;;;;;-0.02;100.00;100855.31;4953972;28;20045;-81
2021/01/01 08:17:18;;;;;;;67.78;34.65;;;;;;;0.03;100.00;100860.28;4946334;28;20027;-79
2021/01/01 08:19:44;;;;;;;77.15;32.92;;;;;;;0.09;100.00;100866.97;4937971;29;20133;-78
2021/01/01 08:22:13;;;;;;;62.10;30.98;;;;;;;0.12;100.00;100864.97;4951652;29;20461;-79
2021/01/01 08:24:42;;;;;;;58.90;29.40;;;;;;;0.15;100.00;100867.44;4950528;29;20043;-78
2021/01/01 08:27:09;;;;;;;59.38;30.88;;;;;;;0.18;100.00;100875.13;4950703;29;20473;-79
2021/01/01 08:29:36;;;;;;;62.17;29.40;;;;;;;0.20;100.00;100870.63;4952267;28;20062;-79
2021/01/01 08:32:03;;;;;;;70.05;33.55;;;;;;;0.23;100.00;100873.03;4966649;28;20448;-79
2021/01/01 08:34:29;;;;;;;68.28;31.58;;;;;;;0.27;100.00;100872.84;4952557;28;20117;-79
2021/01/01 08:36:55;;;;;;;60.17;29.70;;;;;;;0.32;100.00;100878.69;4965976;28;20179;-79
2021/01/01 08:39:24;;;;;;;60.63;29.77;;;;;;;0.37;100.00;100879.22;4947647;29;20050;-78
2021/01/01 08:41:49;;;;;;;57.97;28.63;;;;;;;0.37;100.00;100881.88;4951861;28;20397;-79
2021/01/01 08:44:17;;;;;;;58.63;28.23;;;;;;;0.40;100.00;100892.22;4938432;29;20034;-77
2021/01/01 08:46:43;;;;;;;62.65;29.92;;;;;;;0.45;100.00;100890.97;4950704;28;20031;-78
2021/01/01 08:49:15;;;;;;;57.08;29.55;;;;;;;0.49;100.00;100896.88;4950938;28;20035;-81
2021/01/01 08:51:41;;;;;;;58.83;27.23;;;;;;;0.54;100.00;100900.06;4951341;28;20043;-78
2021/01/01 08:54:07;;;;;;;54.45;28.30;;;;;;;0.57;100.00;100897.25;4951505;28;20412;-78
2021/01/01 08:56:33;;;;;;;61.80;29.92;;;;;;;0.59;100.00;100902.41;4950715;28;20114;-79
2021/01/01 08:59:08;;;;;;;53.67;27.15;;;;;;;0.64;100.00;100905.59;4950814;28;20392;-81
2021/01/01 09:01:34;;;;;;;56.45;28.20;;;;;;;0.67;100.00;100898.34;4951318;28;20035;-80
2021/01/01 09:04:02;;;;;;;57.55;28.58;;;;;;;0.71;100.00;100904.25;4965996;28;20046;-79
2021/01/01 09:06:27;;;;;;;52.22;26.17;;;;;;;0.73;100.00;100902.34;4950091;28;20102;-78
2021/01/01 09:09:04;;;;;;;53.72;25.60;;;;;;;0.75;100.00;100909.25;4952020;29;20490;-78
2021/01/01 09:11:29;;;;;;;49.33;26.58;;;;;;;0.76;100.00;100908.28;4953398;28;20035;-78
2021/01/01 09:14:00;;;;;;;51.28;26.13;;;;;;;0.80;100.00;100913.34;4954498;28;20058;-78
2021/01/01 09:16:26;;;;;;;51.05;25.55;;;;;;;0.82;100.00;100919.38;4953460;28;20050;-78
2021/01/01 09:18:51;;;;;;;57.30;26.50;;;;;;;0.82;100.00;100914.94;4943974;28;20036;-79
2021/01/01 09:21:18;;;;;;;57.55;27.48;;;;;;;0.84;100.00;100925.41;4935487;29;20066;-79
2021/01/01 09:23:52;;;;;;;49.13;25.75;;;;;;;0.86;100.00;100927.00;4954473;28;20039;-78
2021/01/01 09:26:23;;;;;;;53.53;27.33;;;;;;;0.86;100.00;100927.00;4952925;28;20023;-77
2021/01/01 09:28:59;;;;;;;51.88;26.25;;;;;;;0.84;100.00;100926.25;4970384;28;20035;-81
2021/01/01 09:31:24;;;;;;;47.63;25.20;;;;;;;0.83;100.00;100937.78;4955846;28;20031;-78
2021/01/01 09:33:58;;;;;;;58.67;25.83;;;;;;;0.81;100.00;100937.03;4955867;28;20035;-79
2021/01/01 09:36:23;;;;;;;46.17;24.75;;;;;;;0.81;100.00;100944.13;4956139;28;20035;-78
2021/01/01 09:38:49;;;;;;;55.95;25.83;;;;;;;0.78;100.00;100942.50;4970573;28;20027;-79
2021/01/01 09:41:16;;;;;;;57.60;26.80;;;;;;;0.73;100.00;100937.53;4961555;28;20090;-79
2021/01/01 09:43:43;;;;;;;57.00;25.63;;;;;;;0.72;100.00;100940.28;4957158;28;20437;-78
2021/01/01 09:46:08;;;;;;;54.75;28.08;;;;;;;0.69;100.00;100943.09;4956917;28;20208;-78
2021/01/01 09:48:34;;;;;;;56.05;26.60;;;;;;;0.66;100.00;100946.81;4956487;28;20039;-78
2021/01/01 09:50:59;;;;;;;55.28;25.48;;;;;;;0.66;100.00;100941.53;4959554;28;20031;-78
2021/01/01 09:53:25;;;;;;;54.35;27.00;;;;;;;0.66;100.00;100941.53;4955121;28;20043;-79
2021/01/01 09:55:50;;;;;;;66.78;29.42;;;;;;;0.67;100.00;100947.66;4948930;28;20405;-78
2021/01/01 09:58:18;;;;;;;62.85;28.75;;;;;;;0.67;100.00;100952.94;4948722;28;20094;-79
2021/01/01 10:00:44;;;;;;;60.15;26.63;;;;;;;0.67;100.00;100950.28;4950231;28;20049;-78
2021/01/01 10:03:10;;;;;;;64.95;31.10;;;;;;;0.67;100.00;100948.50;4950458;28;20031;-78
2021/01/01 10:05:35;;;;;;;65.88;33.17;;;;;;;0.71;100.00;100950.00;4948947;28;20027;-79
2021/01/01 10:08:01;;;;;;;72.30;36.28;;;;;;;0.79;100.00;100954.75;4950428;29;20497;-81
2021/01/01 10:10:29;;;;;;;76.32;37.58;;;;;;;0.88;100.00;100948.03;4950632;28;20405;-78
2021/01/01 10:12:54;;;;;;;76.85;38.97;;;;;;;0.94;100.00;100948.47;4950310;28;20035;-78
2021/01/01 10:15:20;;;;;;;77.40;37.05;;;;;;;1.05;100.00;100958.31;4950309;28;20090;-79
2021/01/01 10:17:45;;;;;;;68.50;34.10;;;;;;;1.14;100.00;100954.22;4949411;28;20062;-82
2021/01/01 10:20:11;;;;;;;63.55;32.70;;;;;;;1.22;100.00;100954.56;4954408;28;20089;-78
2021/01/01 10:22:37;;;;;;;56.35;29.73;;;;;;;1.33;100.00;100957.31;4951529;28;20115;-78
2021/01/01 10:25:03;;;;;;;60.58;28.52;;;;;;;1.47;100.00;100964.31;4952199;29;20054;-78
2021/01/01 10:27:28;;;;;;;53.70;26.00;;;;;;;1.53;100.00;100955.94;4953851;28;20035;-80
2021/01/01 10:29:54;;;;;;;47.88;25.73;;;;;;;1.59;100.00;100952.88;4953164;28;20027;-78
2021/01/01 10:32:19;;;;;;;47.00;25.60;;;;;;;1.63;100.00;100953.53;4953364;28;20039;-80
2021/01/01 10:34:45;;;;;;;42.15;24.08;;;;;;;1.68;100.00;100957.53;4952279;29;20058;-78
2021/01/01 10:37:12;;;;;;;47.55;23.73;;;;;;;1.76;100.00;100959.66;4936551;29;20649;-79
2021/01/01 10:39:39;;;;;;;47.35;23.52;;;;;;;1.74;100.00;100954.47;4955251;28;20298;-79
2021/01/01 10:42:06;;;;;;;47.70;23.13;;;;;;;1.71;100.00;100959.97;4972906;28;20035;-81
2021/01/01 10:44:31;;;;;;;45.88;23.80;;;;;;;1.71;100.00;100959.13;4958994;28;20034;-81
2021/01/01 10:46:57;;;;;;;41.38;21.83;;;;;;;1.67;100.00;100963.78;4956636;28;20031;-82
2021/01/01 10:49:24;;;;;;;47.03;23.00;;;;;;;1.68;100.00;100965.47;4959513;28;20038;-79
2021/01/01 10:51:49;;;;;;;53.85;22.88;;;;;;;1.63;100.00;100964.94;4957835;28;20457;-79
2021/01/01 10:54:15;;;;;;;56.08;27.90;;;;;;;1.61;100.00;100964.22;4958433;29;20028;-79
2021/01/01 10:56:44;;;;;;;46.33;23.98;;;;;;;1.61;100.00;100963.34;4956562;28;20035;-79
2021/01/01 10:59:13;;;;;;;49.38;21.60;;;;;;;1.74;100.00;100965.03;4940028;29;20050;-82
2021/01/01 11:01:38;;;;;;;46.85;25.17;;;;;;;1.90;100.00;100958.66;4953624;28;20378;-78
2021/01/01 11:04:04;;;;;;;52.20;22.88;;;;;;;2.06;100.00;100959.31;4935238;29;20511;-80
2021/01/01 11:06:33;;;;;;;48.58;24.45;;;;;;;2.20;100.00;100951.19;4969049;28;20086;-83
2021/01/01 11:08:58;;;;;;;44.63;21.98;;;;;;;2.36;100.00;100950.97;4952105;28;20319;-84